Time;durP1;ratioP1;P1;durP2;ratioP2;P2;SDS_P1;SDS_P2;PMS_P1;PMS_P2;Temp;Humidity;BMP_temperature;BMP_pressure;BME280_temperature;BME280_humidity;BME280_pressure;Samples;Min_cycle;Max_cycle;Signal;HPM_P1;HPM_P2
2022/07/30 00:01:53;;;;;;;0.20;0.20;;;15.20;99.90;;;;;;5005502;28;20022;-78
2022/07/30 00:04:19;;;;;;;0.40;0.40;;;15.10;99.90;;;;;;5005364;28;20069;-78
2022/07/30 00:06:45;;;;;;;0.20;0.20;;;15.10;99.90;;;;;;5022345;28;20089;-78
2022/07/30 00:09:10;;;;;;;0.50;0.50;;;15.10;99.90;;;;;;5004925;28;20045;-79
2022/07/30 00:11:36;;;;;;;0.30;0.30;;;15.00;99.90;;;;;;5022530;28;20044;-78
2022/07/30 00:14:02;;;;;;;1.90;0.38;;;15.00;99.90;;;;;;5023462;28;20250;-78
2022/07/30 00:16:27;;;;;;;0.35;0.35;;;15.00;99.90;;;;;;5023836;28;20050;-78
2022/07/30 00:18:53;;;;;;;0.45;0.40;;;14.90;99.90;;;;;;5022482;28;20093;-78
2022/07/30 00:21:19;;;;;;;0.20;0.20;;;14.80;99.90;;;;;;5022428;28;20022;-78
2022/07/30 00:23:44;;;;;;;0.52;0.40;;;14.70;99.90;;;;;;5005787;28;20405;-79
2022/07/30 00:26:10;;;;;;;1.08;0.57;;;14.60;99.90;;;;;;5005885;28;20093;-78
2022/07/30 00:28:36;;;;;;;1.45;0.60;;;14.50;99.90;;;;;;5005040;28;20034;-78
2022/07/30 00:31:01;;;;;;;0.93;0.25;;;14.40;99.90;;;;;;5022740;28;20046;-78
2022/07/30 00:33:27;;;;;;;0.20;0.20;;;14.30;99.90;;;;;;5022033;28;20318;-78
2022/07/30 00:35:53;;;;;;;0.20;0.20;;;14.30;99.90;;;;;;5004470;28;20044;-78
2022/07/30 00:38:18;;;;;;;0.25;0.25;;;14.30;99.90;;;;;;5023505;28;20021;-79
2022/07/30 00:40:46;;;;;;;2.22;0.80;;;14.30;99.90;;;;;;5023635;28;20064;-78
2022/07/30 00:43:18;;;;;;;0.13;0.13;;;14.40;99.90;;;;;;5005392;28;20029;-78
2022/07/30 00:45:44;;;;;;;0.47;0.47;;;14.50;99.90;;;;;;5029992;28;20033;-78
2022/07/30 00:48:13;;;;;;;0.43;0.32;;;14.50;99.90;;;;;;5028899;28;20033;-78
2022/07/30 00:50:40;;;;;;;8.77;0.50;;;14.50;99.90;;;;;;5008314;28;20025;-78
2022/07/30 00:53:06;;;;;;;1.33;0.57;;;14.50;99.90;;;;;;5025822;28;20038;-78
2022/07/30 00:55:33;;;;;;;0.75;0.50;;;14.70;99.90;;;;;;5008248;28;20040;-78
2022/07/30 00:57:58;;;;;;;0.32;0.32;;;14.70;99.90;;;;;;5008980;28;20029;-78
2022/07/30 01:00:25;;;;;;;1.65;1.20;;;14.80;99.90;;;;;;5026224;28;20028;-78
2022/07/30 01:02:51;;;;;;;0.45;0.45;;;14.80;99.90;;;;;;5009055;28;20053;-79
2022/07/30 01:05:16;;;;;;;0.50;0.50;;;14.80;99.90;;;;;;5025544;28;20018;-79
2022/07/30 01:07:43;;;;;;;0.20;0.20;;;14.80;99.90;;;;;;5008304;28;20033;-78
2022/07/30 01:10:11;;;;;;;0.30;0.30;;;14.90;99.90;;;;;;5007683;28;20265;-79
2022/07/30 01:12:37;;;;;;;0.70;0.60;;;15.20;99.90;;;;;;5007433;28;20033;-79
2022/07/30 01:15:06;;;;;;;0.50;0.50;;;15.40;99.90;;;;;;5025372;28;20330;-78
2022/07/30 01:17:33;;;;;;;0.45;0.45;;;15.40;99.90;;;;;;5025506;28;20356;-78
2022/07/30 01:20:13;;;;;;;0.70;0.57;;;15.40;99.90;;;;;;5007339;28;20049;-78
2022/07/30 01:23:15;;;;;;;0.20;0.20;;;15.30;99.90;;;;;;5024974;28;20040;-79
2022/07/30 01:25:47;;;;;;;1.27;0.93;;;15.30;99.90;;;;;;5024722;28;20014;-79
2022/07/30 01:28:16;;;;;;;15.48;0.52;;;15.10;99.90;;;;;;5026349;28;20191;-78
2022/07/30 01:30:44;;;;;;;0.60;0.60;;;15.10;99.90;;;;;;5010086;28;20096;-78
2022/07/30 01:33:13;;;;;;;0.63;0.63;;;15.10;99.90;;;;;;5007778;28;20234;-78
2022/07/30 01:35:40;;;;;;;0.25;0.25;;;15.70;99.90;;;;;;5024971;28;20036;-78
2022/07/30 01:38:07;;;;;;;0.47;0.47;;;15.30;99.90;;;;;;5006874;28;20105;-79
2022/07/30 01:40:36;;;;;;;0.57;0.57;;;15.20;99.90;;;;;;5007571;28;20068;-78
2022/07/30 01:43:02;;;;;;;2.38;0.90;;;15.20;99.90;;;;;;5024605;28;20048;-78
2022/07/30 01:45:29;;;;;;;0.85;0.50;;;15.10;99.90;;;;;;5006755;28;20340;-79
2022/07/30 01:47:59;;;;;;;0.63;0.63;;;15.10;99.90;;;;;;5024292;28;20025;-78
2022/07/30 01:50:26;;;;;;;0.50;0.50;;;15.00;99.90;;;;;;5006934;28;20056;-79
2022/07/30 01:52:54;;;;;;;0.20;0.20;;;14.90;99.90;;;;;;5006910;28;20109;-78
2022/07/30 01:55:25;;;;;;;0.40;0.40;;;14.90;99.90;;;;;;5025654;28;20022;-78
2022/07/30 01:57:52;;;;;;;0.70;0.60;;;14.90;99.90;;;;;;5025365;28;20089;-78
2022/07/30 02:00:18;;;;;;;0.55;0.40;;;14.80;99.90;;;;;;5025516;28;20089;-79
2022/07/30 02:02:45;;;;;;;0.20;0.20;;;14.70;99.90;;;;;;5024265;28;20034;-79
2022/07/30 02:05:11;;;;;;;0.68;0.68;;;14.60;99.90;;;;;;5006794;28;20029;-78
2022/07/30 02:07:48;;;;;;;0.70;0.60;;;14.60;99.90;;;;;;5024629;28;20026;-78
2022/07/30 02:10:47;;;;;;;0.40;0.40;;;14.50;99.90;;;;;;5006562;28;20079;-79
2022/07/30 02:13:22;;;;;;;0.20;0.20;;;14.50;99.90;;;;;;4991600;28;20053;-78
2022/07/30 02:15:55;;;;;;;0.65;0.63;;;14.40;99.90;;;;;;5026672;28;20025;-78
2022/07/30 02:18:28;;;;;;;0.30;0.30;;;14.40;99.90;;;;;;5008610;28;20199;-79
2022/07/30 02:21:03;;;;;;;1.00;1.00;;;14.30;99.90;;;;;;5025319;28;20025;-78
2022/07/30 02:23:34;;;;;;;0.30;0.30;;;14.20;99.90;;;;;;5024935;28;20017;-79
2022/07/30 02:26:02;;;;;;;0.65;0.65;;;14.10;99.90;;;;;;5024539;28;20021;-79
2022/07/30 02:28:33;;;;;;;0.30;0.30;;;14.10;99.90;;;;;;5025026;28;20049;-79
2022/07/30 02:31:00;;;;;;;0.43;0.43;;;13.90;99.90;;;;;;5007269;28;20029;-79
2022/07/30 02:33:32;;;;;;;0.50;0.50;;;13.80;99.90;;;;;;5023786;28;20060;-79
2022/07/30 02:35:59;;;;;;;0.90;0.40;;;13.80;99.90;;;;;;5023677;28;20361;-78
2022/07/30 02:38:27;;;;;;;0.30;0.30;;;13.80;99.90;;;;;;5026701;28;20080;-78
2022/07/30 02:40:56;;;;;;;0.32;0.32;;;13.80;99.90;;;;;;5010126;28;20045;-79
2022/07/30 02:43:24;;;;;;;7.70;1.00;;;13.80;99.90;;;;;;5010384;28;20117;-78
2022/07/30 02:45:51;;;;;;;2.35;0.90;;;13.80;99.90;;;;;;5008212;28;20057;-78
2022/07/30 02:48:20;;;;;;;0.88;0.73;;;13.70;99.90;;;;;;5012045;28;20045;-78
2022/07/30 02:50:48;;;;;;;0.45;0.45;;;13.70;99.90;;;;;;5011715;28;20028;-79
2022/07/30 02:53:15;;;;;;;0.70;0.70;;;13.60;99.90;;;;;;5028750;28;20117;-78
2022/07/30 02:55:42;;;;;;;0.30;0.30;;;13.60;99.90;;;;;;5010978;28;20029;-79
2022/07/30 02:58:10;;;;;;;1.60;0.30;;;13.60;99.90;;;;;;5012241;28;20064;-79
2022/07/30 03:00:37;;;;;;;0.50;0.50;;;13.40;99.90;;;;;;5008714;28;20057;-78
2022/07/30 03:03:06;;;;;;;0.40;0.40;;;13.50;99.90;;;;;;5026001;28;20030;-79
2022/07/30 03:05:33;;;;;;;0.20;0.20;;;13.50;99.90;;;;;;5028234;28;20022;-78
2022/07/30 03:08:00;;;;;;;0.30;0.30;;;13.30;99.90;;;;;;5025154;28;20025;-79
2022/07/30 03:10:27;;;;;;;0.57;0.57;;;13.30;99.90;;;;;;5010481;28;20364;-78
2022/07/30 03:12:54;;;;;;;0.38;0.17;;;13.20;99.90;;;;;;5009499;28;20548;-78
2022/07/30 03:15:20;;;;;;;0.40;0.40;;;13.20;99.90;;;;;;5026480;28;20318;-78
2022/07/30 03:17:49;;;;;;;1.05;0.57;;;13.10;99.90;;;;;;5007800;28;20056;-79
2022/07/30 03:20:17;;;;;;;3.90;1.27;;;13.10;99.90;;;;;;5010770;28;20045;-79
2022/07/30 03:22:47;;;;;;;0.60;0.60;;;13.10;99.90;;;;;;5011724;28;20022;-78
2022/07/30 03:25:15;;;;;;;2.20;0.93;;;13.10;99.90;;;;;;5029616;28;20064;-78
2022/07/30 03:27:42;;;;;;;0.70;0.70;;;13.10;99.90;;;;;;5011653;28;20199;-78
2022/07/30 03:30:10;;;;;;;0.82;0.82;;;13.00;99.90;;;;;;5028580;28;20024;-78
2022/07/30 03:32:37;;;;;;;10.30;1.88;;;13.00;99.90;;;;;;5011292;28;20037;-78
2022/07/30 03:35:05;;;;;;;0.40;0.40;;;13.00;99.90;;;;;;5028386;28;20057;-78
2022/07/30 03:37:31;;;;;;;0.88;0.88;;;13.00;99.90;;;;;;5028682;28;20017;-78
2022/07/30 03:39:58;;;;;;;0.30;0.30;;;12.90;99.90;;;;;;5028672;28;20025;-78
2022/07/30 03:42:25;;;;;;;6.70;1.67;;;12.90;99.90;;;;;;5011188;28;20045;-78
2022/07/30 03:44:51;;;;;;;0.50;0.50;;;12.90;99.90;;;;;;5026247;28;20121;-78
2022/07/30 03:47:19;;;;;;;0.20;0.20;;;12.90;99.90;;;;;;5007484;28;20048;-78
2022/07/30 03:49:45;;;;;;;0.35;0.35;;;12.90;99.90;;;;;;5026378;28;20029;-78
2022/07/30 03:52:12;;;;;;;1.30;0.95;;;12.80;99.90;;;;;;5026448;28;20029;-79
2022/07/30 03:54:39;;;;;;;0.70;0.70;;;12.90;99.90;;;;;;5027532;28;20037;-78
2022/07/30 03:57:05;;;;;;;1.00;1.00;;;;;;;;;;5028025;28;20018;-79
2022/07/30 03:59:32;;;;;;;0.38;0.38;;;12.80;99.90;;;;;;5010364;28;20198;-79
2022/07/30 04:02:02;;;;;;;1.20;0.40;;;12.80;99.90;;;;;;5010596;28;20036;-79
2022/07/30 04:04:29;;;;;;;0.55;0.40;;;12.80;99.90;;;;;;5026866;28;20018;-79
2022/07/30 04:06:56;;;;;;;0.43;0.43;;;12.70;99.90;;;;;;5026585;28;20026;-78
2022/07/30 04:09:22;;;;;;;0.50;0.50;;;12.70;99.90;;;;;;5027724;28;20026;-79
2022/07/30 04:11:47;;;;;;;1.35;1.02;;;12.60;99.90;;;;;;5009651;28;20380;-79
2022/07/30 04:14:13;;;;;;;0.73;0.73;;;12.60;99.90;;;;;;5010175;28;20140;-78
2022/07/30 04:16:44;;;;;;;0.65;0.65;;;12.60;99.90;;;;;;5006720;28;20046;-79
2022/07/30 04:19:17;;;;;;;0.63;0.63;;;12.60;99.90;;;;;;5008066;28;20045;-79
2022/07/30 04:21:45;;;;;;;4.22;0.93;;;12.60;99.90;;;;;;5008777;28;20025;-79
2022/07/30 04:24:12;;;;;;;0.80;0.80;;;12.70;99.90;;;;;;5010292;28;20026;-79
2022/07/30 04:26:38;;;;;;;0.60;0.60;;;12.70;99.90;;;;;;5011875;28;20026;-79
2022/07/30 04:29:08;;;;;;;0.57;0.57;;;12.80;99.90;;;;;;5010605;28;20270;-79
2022/07/30 04:31:35;;;;;;;0.63;0.63;;;12.90;99.90;;;;;;5011492;28;20019;-79
2022/07/30 04:34:02;;;;;;;4.40;1.38;;;12.90;99.90;;;;;;5009705;28;20285;-79
2022/07/30 04:36:28;;;;;;;0.52;0.30;;;12.90;99.90;;;;;;5009399;28;20019;-79
2022/07/30 04:38:55;;;;;;;0.60;0.60;;;13.00;99.90;;;;;;5010094;28;20026;-79
2022/07/30 04:41:21;;;;;;;0.80;0.80;;;;;;;;;;5011668;28;20082;-79
2022/07/30 04:43:46;;;;;;;0.80;0.52;;;13.10;99.90;;;;;;5010663;28;20047;-79
2022/07/30 04:46:13;;;;;;;0.73;0.73;;;13.10;99.90;;;;;;5008531;28;20030;-79
2022/07/30 04:48:39;;;;;;;0.73;0.73;;;13.10;99.90;;;;;;5007649;28;20025;-79
2022/07/30 04:51:18;;;;;;;0.60;0.52;;;13.20;99.90;;;;;;5006671;28;20105;-79
2022/07/30 04:53:44;;;;;;;;;;;13.50;99.90;;;;;;5006752;28;20038;-78
2022/07/30 04:56:12;;;;;;;0.30;0.30;;;13.60;99.90;;;;;;5006338;28;20152;-79
2022/07/30 04:58:40;;;;;;;0.40;0.40;;;13.60;99.90;;;;;;5005952;28;20022;-79
2022/07/30 05:01:07;;;;;;;0.95;0.90;;;13.60;99.90;;;;;;5005989;28;20018;-78
2022/07/30 05:03:34;;;;;;;0.43;0.43;;;13.70;99.90;;;;;;5006090;28;20022;-79
2022/07/30 05:06:01;;;;;;;0.20;0.20;;;13.80;99.90;;;;;;5006005;28;20250;-79
2022/07/30 05:08:27;;;;;;;0.73;0.73;;;13.80;99.90;;;;;;5006064;28;20065;-79
2022/07/30 05:10:53;;;;;;;0.57;0.57;;;13.90;99.90;;;;;;5006026;28;20125;-79
2022/07/30 05:13:19;;;;;;;0.43;0.43;;;13.90;99.90;;;;;;5005993;28;20038;-79
2022/07/30 05:15:45;;;;;;;0.30;0.30;;;14.10;99.90;;;;;;5011481;28;20049;-79
2022/07/30 05:18:11;;;;;;;0.60;0.60;;;14.20;99.90;;;;;;5011215;28;20070;-79
2022/07/30 05:20:37;;;;;;;1.58;0.85;;;14.30;99.90;;;;;;5026018;28;20022;-80
2022/07/30 05:23:03;;;;;;;3.10;0.55;;;14.40;99.90;;;;;;5007913;28;20041;-80
2022/07/30 05:25:29;;;;;;;0.28;0.28;;;14.40;99.90;;;;;;5007707;28;20040;-80
2022/07/30 05:27:56;;;;;;;0.50;0.50;;;14.60;99.90;;;;;;5007312;28;20026;-79
2022/07/30 05:30:23;;;;;;;0.85;0.85;;;14.70;99.90;;;;;;5024450;28;20298;-80
2022/07/30 05:32:48;;;;;;;0.60;0.60;;;14.80;99.90;;;;;;5007643;28;20038;-80
2022/07/30 05:35:14;;;;;;;0.75;0.75;;;14.90;99.90;;;;;;5024794;28;20093;-80
2022/07/30 05:37:39;;;;;;;4.20;0.57;;;15.10;99.90;;;;;;5007244;28;20022;-80
2022/07/30 05:40:06;;;;;;;0.60;0.60;;;15.10;99.90;;;;;;5024831;28;20365;-79
2022/07/30 05:42:31;;;;;;;1.70;1.15;;;15.30;99.90;;;;;;5007404;28;20306;-79
2022/07/30 05:44:59;;;;;;;0.60;0.60;;;15.40;99.90;;;;;;5024576;28;20040;-79
2022/07/30 05:47:25;;;;;;;0.47;0.47;;;15.80;99.90;;;;;;5024640;28;20018;-80
2022/07/30 05:49:51;;;;;;;0.90;0.90;;;15.80;99.90;;;;;;5006952;28;20026;-80
2022/07/30 05:52:16;;;;;;;0.38;0.38;;;15.90;99.90;;;;;;5006450;28;20126;-80
2022/07/30 05:54:42;;;;;;;0.32;0.32;;;16.10;99.90;;;;;;5007148;28;20092;-79
2022/07/30 05:57:08;;;;;;;0.60;0.60;;;16.30;99.90;;;;;;5007303;28;20101;-80
2022/07/30 05:59:34;;;;;;;0.43;0.43;;;16.40;99.90;;;;;;5024422;28;20024;-80
2022/07/30 06:02:01;;;;;;;1.15;0.68;;;16.50;99.90;;;;;;5007708;28;20029;-80
2022/07/30 06:04:27;;;;;;;5.15;0.93;;;16.60;99.90;;;;;;5023989;28;20026;-80
2022/07/30 06:06:53;;;;;;;0.50;0.50;;;;;;;;;;5024033;28;20029;-80
2022/07/30 06:09:19;;;;;;;0.28;0.28;;;17.00;99.90;;;;;;5024281;28;20022;-80
2022/07/30 06:11:45;;;;;;;3.42;0.35;;;17.10;99.90;;;;;;5024609;28;20026;-79
2022/07/30 06:14:11;;;;;;;0.47;0.47;;;17.50;99.90;;;;;;5023062;28;20089;-80
2022/07/30 06:16:36;;;;;;;0.40;0.40;;;17.70;99.90;;;;;;5023479;28;20045;-80
2022/07/30 06:19:02;;;;;;;0.50;0.50;;;17.70;99.90;;;;;;5023459;28;20029;-79
2022/07/30 06:21:28;;;;;;;21.38;1.58;;;18.10;99.90;;;;;;5006663;28;20053;-79
2022/07/30 06:23:54;;;;;;;3.97;0.45;;;18.10;99.90;;;;;;5006929;28;20021;-79
2022/07/30 06:26:19;;;;;;;0.98;0.43;;;18.30;99.90;;;;;;5024381;28;20060;-79
2022/07/30 06:28:45;;;;;;;0.50;0.50;;;18.70;99.90;;;;;;5023916;28;20251;-79
2022/07/30 06:31:11;;;;;;;0.50;0.50;;;19.10;99.90;;;;;;5024077;28;20052;-80
2022/07/30 06:33:38;;;;;;;3.80;0.55;;;19.20;99.90;;;;;;5023635;28;20038;-79
2022/07/30 06:36:04;;;;;;;0.60;0.60;;;19.40;99.90;;;;;;5023993;28;20029;-80
2022/07/30 06:38:29;;;;;;;0.55;0.40;;;19.50;99.90;;;;;;5023668;28;20096;-79
2022/07/30 06:40:55;;;;;;;0.45;0.45;;;19.50;99.90;;;;;;5005812;28;20325;-80
2022/07/30 06:43:21;;;;;;;0.30;0.30;;;19.50;99.90;;;;;;5022829;28;20068;-79
2022/07/30 06:45:47;;;;;;;0.63;0.50;;;19.50;99.90;;;;;;5006129;28;20033;-79
2022/07/30 06:48:13;;;;;;;0.60;0.43;;;19.60;99.90;;;;;;5023397;28;20093;-79
2022/07/30 06:50:40;;;;;;;0.25;0.25;;;19.70;99.90;;;;;;5005441;28;20021;-79
2022/07/30 06:53:06;;;;;;;0.38;0.38;;;19.70;99.90;;;;;;5005405;28;20063;-79
2022/07/30 06:55:32;;;;;;;2.20;0.63;;;19.80;99.90;;;;;;5002639;28;20022;-79
2022/07/30 06:57:58;;;;;;;0.35;0.35;;;19.90;99.90;;;;;;4996651;28;20426;-79
2022/07/30 07:00:24;;;;;;;0.40;0.40;;;20.10;99.90;;;;;;5014083;28;20475;-80
2022/07/30 07:02:50;;;;;;;0.20;0.20;;;20.60;99.90;;;;;;4996336;28;20026;-80
2022/07/30 07:05:16;;;;;;;5.00;0.77;;;21.10;99.90;;;;;;5013954;28;20030;-80
2022/07/30 07:07:42;;;;;;;0.40;0.40;;;22.00;99.90;;;;;;4996227;28;20030;-80
2022/07/30 07:10:09;;;;;;;0.40;0.40;;;24.30;95.00;;;;;;5013972;28;20101;-80
2022/07/30 07:12:34;;;;;;;0.08;0.08;;;25.20;78.50;;;;;;4996295;28;20030;-80
2022/07/30 07:15:00;;;;;;;0.30;0.30;;;26.30;70.40;;;;;;5013838;28;20387;-80
2022/07/30 07:17:26;;;;;;;0.10;0.10;;;27.20;66.10;;;;;;5013618;28;20045;-80
2022/07/30 07:19:52;;;;;;;0.43;0.43;;;28.00;62.50;;;;;;4996004;28;20037;-80
2022/07/30 07:22:17;;;;;;;0.35;0.35;;;28.70;58.70;;;;;;5013642;28;20044;-80
2022/07/30 07:24:43;;;;;;;0.82;0.50;;;28.90;58.10;;;;;;5013541;28;20037;-80
2022/07/30 07:27:09;;;;;;;0.20;0.20;;;29.50;56.70;;;;;;5013718;28;20036;-82
2022/07/30 07:29:35;;;;;;;0.40;0.40;;;30.70;53.70;;;;;;5013746;28;20536;-80
2022/07/30 07:32:00;;;;;;;0.20;0.17;;;30.50;52.80;;;;;;5013568;28;20053;-78
2022/07/30 07:34:26;;;;;;;0.45;0.45;;;30.40;53.50;;;;;;5013690;28;20108;-80
2022/07/30 07:36:51;;;;;;;0.20;0.20;;;30.50;54.30;;;;;;4996186;28;20531;-80
2022/07/30 07:39:17;;;;;;;0.55;0.55;;;30.60;52.30;;;;;;4995898;28;20490;-76
2022/07/30 07:41:43;;;;;;;2.70;0.40;;;30.90;50.70;;;;;;5013192;28;20410;-76
2022/07/30 07:44:08;;;;;;;0.25;0.25;;;31.50;50.50;;;;;;4995761;28;20470;-76
2022/07/30 07:46:34;;;;;;;0.43;0.30;;;31.10;50.60;;;;;;5013405;28;20022;-75
2022/07/30 07:49:00;;;;;;;0.20;0.20;;;31.50;49.80;;;;;;5013365;28;20099;-76
2022/07/30 07:51:26;;;;;;;0.20;0.20;;;31.30;50.00;;;;;;4995799;28;20141;-75
2022/07/30 07:53:52;;;;;;;0.10;0.10;;;31.60;49.40;;;;;;5012983;28;20042;-76
2022/07/30 07:56:17;;;;;;;0.68;0.50;;;31.10;49.80;;;;;;5013221;28;20022;-75
2022/07/30 07:58:45;;;;;;;0.20;0.20;;;30.50;52.00;;;;;;5013311;28;20106;-76
2022/07/30 08:01:10;;;;;;;0.65;0.65;;;30.60;50.10;;;;;;5013101;28;20489;-76
2022/07/30 08:03:36;;;;;;;0.20;0.20;;;30.30;50.60;;;;;;5013153;28;20112;-76
2022/07/30 08:06:01;;;;;;;0.50;0.50;;;29.40;50.40;;;;;;5013260;28;20056;-76
2022/07/30 08:08:27;;;;;;;0.45;0.38;;;29.50;50.90;;;;;;5013246;28;20028;-75
2022/07/30 08:10:53;;;;;;;1.38;0.50;;;29.40;51.60;;;;;;5013403;28;20054;-76
2022/07/30 08:13:18;;;;;;;0.30;0.30;;;29.70;50.40;;;;;;5013156;28;20483;-75
2022/07/30 08:15:44;;;;;;;0.20;0.15;;;29.90;50.80;;;;;;5015254;28;20041;-76
2022/07/30 08:18:11;;;;;;;0.20;0.20;;;29.20;50.90;;;;;;5013044;28;20479;-75
2022/07/30 08:20:38;;;;;;;0.65;0.30;;;29.40;50.70;;;;;;4996685;28;20028;-76
2022/07/30 08:23:04;;;;;;;0.20;0.20;;;29.40;52.10;;;;;;5012984;28;20025;-76
2022/07/30 08:25:30;;;;;;;0.28;0.28;;;29.60;51.20;;;;;;5013093;28;20018;-76
2022/07/30 08:27:55;;;;;;;9.02;1.85;;;30.00;51.40;;;;;;4995402;28;20040;-76
2022/07/30 08:30:21;;;;;;;0.30;0.30;;;29.90;50.10;;;;;;5013173;28;20464;-75
2022/07/30 08:32:47;;;;;;;0.20;0.20;;;29.50;50.80;;;;;;5012868;28;20037;-76
2022/07/30 08:35:13;;;;;;;0.65;0.65;;;29.20;51.90;;;;;;5013038;28;20022;-75
2022/07/30 08:37:39;;;;;;;0.40;0.40;;;28.70;51.20;;;;;;5012469;28;20108;-75
2022/07/30 08:40:07;;;;;;;0.47;0.47;;;29.30;50.90;;;;;;5012850;28;20018;-75
2022/07/30 08:42:37;;;;;;;0.10;0.10;;;29.60;51.20;;;;;;5022000;28;20025;-76
2022/07/30 08:45:03;;;;;;;0.57;0.57;;;29.80;49.80;;;;;;5023157;28;20025;-75
2022/07/30 08:47:33;;;;;;;0.20;0.20;;;29.90;49.60;;;;;;5023233;28;20369;-76
2022/07/30 08:50:03;;;;;;;0.08;0.08;;;30.00;49.40;;;;;;5004708;28;20030;-76
2022/07/30 08:52:35;;;;;;;0.93;0.20;;;30.10;50.50;;;;;;5022691;28;20322;-76
2022/07/30 08:55:03;;;;;;;1.73;1.05;;;30.60;50.30;;;;;;5022778;28;20426;-76
2022/07/30 08:57:29;;;;;;;0.13;0.13;;;30.80;50.70;;;;;;5022141;28;20030;-76
2022/07/30 08:59:59;;;;;;;0.40;0.40;;;29.90;47.70;;;;;;5022711;28;20018;-77
2022/07/30 09:02:25;;;;;;;0.10;0.10;;;29.20;49.80;;;;;;5021093;28;20022;-79
2022/07/30 09:04:52;;;;;;;0.40;0.40;;;29.30;48.80;;;;;;5012790;28;20097;-79
2022/07/30 09:07:17;;;;;;;0.47;0.43;;;29.70;48.60;;;;;;5016165;28;20356;-78
2022/07/30 09:09:43;;;;;;;0.40;0.40;;;29.80;49.10;;;;;;5016172;28;20030;-79
2022/07/30 09:12:34;;;;;;;0.20;0.20;;;29.00;48.40;;;;;;5015782;28;20083;-79
2022/07/30 09:15:15;;;;;;;0.10;0.10;;;29.00;49.10;;;;;;4998325;28;20037;-79
2022/07/30 09:17:55;;;;;;;0.30;0.30;;;28.80;49.10;;;;;;5025724;28;20092;-79
2022/07/30 09:20:23;;;;;;;2.70;1.55;;;28.60;49.70;;;;;;4998646;28;20041;-79
2022/07/30 09:22:51;;;;;;;0.50;0.50;;;29.00;50.20;;;;;;4998440;28;20030;-79
2022/07/30 09:25:41;;;;;;;0.20;0.20;;;29.10;49.00;;;;;;5021100;28;20038;-76
2022/07/30 09:28:09;;;;;;;0.30;0.30;;;;;;;;;;5010460;28;20030;-76
2022/07/30 09:30:54;;;;;;;0.22;0.22;;;28.70;48.00;;;;;;5015523;28;20026;-78
2022/07/30 09:33:35;;;;;;;0.32;0.32;;;29.10;47.80;;;;;;5015422;28;20153;-79
2022/07/30 09:36:02;;;;;;;0.20;0.20;;;29.70;48.30;;;;;;5015733;28;20104;-79
2022/07/30 09:38:27;;;;;;;0.32;0.30;;;30.10;47.80;;;;;;5015445;28;20022;-79
2022/07/30 09:40:55;;;;;;;1.23;0.20;;;29.80;48.00;;;;;;5015829;28;20096;-78
2022/07/30 09:43:21;;;;;;;0.20;0.20;;;29.10;48.30;;;;;;5015692;28;20018;-79
2022/07/30 09:45:53;;;;;;;0.50;0.50;;;29.10;49.00;;;;;;5015638;28;20101;-81
2022/07/30 09:48:27;;;;;;;0.40;0.20;;;29.10;49.70;;;;;;4997731;28;20417;-78
2022/07/30 09:50:54;;;;;;;0.95;0.95;;;29.30;48.80;;;;;;5015267;28;20076;-77
2022/07/30 09:53:21;;;;;;;0.30;0.30;;;29.20;50.20;;;;;;5015256;28;20055;-80
2022/07/30 09:55:48;;;;;;;0.20;0.20;;;29.40;49.70;;;;;;5000933;28;20025;-79
2022/07/30 09:58:13;;;;;;;0.52;0.20;;;29.70;50.80;;;;;;5025744;28;20022;-79
2022/07/30 10:00:42;;;;;;;0.40;0.40;;;29.30;49.10;;;;;;5025402;28;20088;-80
2022/07/30 10:03:24;;;;;;;0.80;0.28;;;29.40;50.30;;;;;;5008156;28;20090;-77
2022/07/30 10:05:58;;;;;;;0.80;0.35;;;28.60;49.60;;;;;;5025062;28;20025;-75
2022/07/30 10:08:44;;;;;;;0.32;0.20;;;28.10;51.10;;;;;;5024319;28;20151;-76
2022/07/30 10:11:12;;;;;;;0.85;0.65;;;27.60;50.80;;;;;;5024630;28;20081;-75
2022/07/30 10:13:39;;;;;;;0.25;0.22;;;27.80;50.70;;;;;;5024630;28;20040;-75
2022/07/30 10:16:05;;;;;;;0.45;0.45;;;28.00;49.30;;;;;;5006595;28;20291;-76
2022/07/30 10:18:31;;;;;;;0.63;0.20;;;28.70;50.30;;;;;;5023266;28;20033;-76
2022/07/30 10:21:00;;;;;;;0.52;0.38;;;29.50;47.60;;;;;;4997123;28;20022;-76
2022/07/30 10:23:28;;;;;;;0.10;0.10;;;29.90;47.70;;;;;;5014654;28;20101;-75
2022/07/30 10:25:58;;;;;;;0.15;0.15;;;30.50;48.00;;;;;;5014527;28;20269;-76
2022/07/30 10:28:29;;;;;;;0.10;0.10;;;29.70;46.70;;;;;;4997233;28;20026;-75
2022/07/30 10:30:57;;;;;;;0.32;0.30;;;29.00;48.60;;;;;;4997006;28;20045;-75
2022/07/30 10:33:25;;;;;;;0.28;0.28;;;26.90;46.70;;;;;;5014564;28;20036;-75
2022/07/30 10:35:51;;;;;;;0.25;0.25;;;28.60;49.30;;;;;;5014281;28;20399;-75
2022/07/30 10:38:20;;;;;;;0.90;0.75;;;28.30;51.10;;;;;;4997128;28;20482;-75
2022/07/30 10:41:00;;;;;;;0.45;0.35;;;28.10;49.70;;;;;;4996833;28;20022;-74
2022/07/30 10:43:56;;;;;;;2.35;0.32;;;28.80;49.90;;;;;;5014409;28;20101;-74
2022/07/30 10:46:36;;;;;;;0.75;0.75;;;29.10;48.00;;;;;;4996476;28;20029;-74
2022/07/30 10:49:13;;;;;;;0.20;0.20;;;29.10;49.70;;;;;;5014056;28;20033;-75
2022/07/30 10:51:50;;;;;;;6.15;0.40;;;29.40;50.30;;;;;;4996507;28;20033;-75
2022/07/30 10:54:35;;;;;;;0.20;0.20;;;29.40;47.00;;;;;;5014323;28;20057;-75
2022/07/30 10:57:11;;;;;;;62.17;13.48;;;29.70;47.90;;;;;;5014174;28;20025;-75
2022/07/30 10:59:54;;;;;;;0.40;0.40;;;30.00;47.60;;;;;;4996481;28;20026;-76
2022/07/30 11:02:21;;;;;;;0.20;0.20;;;29.60;48.10;;;;;;5013893;28;20022;-76
2022/07/30 11:04:48;;;;;;;0.30;0.30;;;29.30;47.90;;;;;;5013815;28;20549;-75
2022/07/30 11:07:22;;;;;;;0.30;0.28;;;29.90;49.70;;;;;;5014002;28;20032;-76
2022/07/30 11:09:59;;;;;;;0.20;0.20;;;30.30;48.30;;;;;;5013778;28;20487;-75
2022/07/30 11:12:44;;;;;;;1.13;0.30;;;30.10;48.50;;;;;;4996071;28;20042;-75
2022/07/30 11:15:16;;;;;;;0.35;0.35;;;30.00;48.40;;;;;;5013830;28;20025;-75
2022/07/30 11:18:04;;;;;;;0.20;0.20;;;29.60;48.50;;;;;;5013681;28;20046;-75
2022/07/30 11:20:32;;;;;;;0.20;0.20;;;28.90;49.40;;;;;;5013829;28;20022;-75
2022/07/30 11:23:11;;;;;;;0.30;0.30;;;28.90;50.40;;;;;;5013809;28;20029;-75
2022/07/30 11:25:37;;;;;;;;;;;28.40;49.90;;;;;;5013923;28;20029;-76
2022/07/30 11:28:03;;;;;;;1.45;0.40;;;28.10;49.40;;;;;;4995378;28;19906;-75
2022/07/30 11:30:28;;;;;;;0.25;0.20;;;27.90;50.50;;;;;;4995894;28;20045;-75
2022/07/30 11:33:03;;;;;;;0.20;0.20;;;28.00;50.90;;;;;;5013575;28;20524;-75
2022/07/30 11:35:30;;;;;;;0.20;0.20;;;28.20;51.60;;;;;;5013767;28;20069;-74
2022/07/30 11:37:57;;;;;;;1.65;0.30;;;28.10;51.60;;;;;;4995886;28;20030;-75
2022/07/30 11:40:27;;;;;;;3.08;1.60;;;28.10;51.60;;;;;;5013564;28;20510;-75
2022/07/30 11:43:27;;;;;;;0.88;0.47;;;28.30;51.60;;;;;;5013421;28;20029;-75
2022/07/30 11:46:05;;;;;;;3.75;1.08;;;28.50;51.60;;;;;;5013273;28;20041;-75
2022/07/30 11:48:32;;;;;;;0.68;0.68;;;29.50;50.20;;;;;;5013264;28;20030;-75
2022/07/30 11:50:58;;;;;;;0.30;0.30;;;30.30;49.20;;;;;;5013213;28;20030;-75
2022/07/30 11:53:24;;;;;;;1.85;0.22;;;31.70;47.70;;;;;;4995526;28;20504;-75
2022/07/30 11:55:51;;;;;;;0.65;0.40;;;33.00;47.10;;;;;;4995563;28;20068;-75
2022/07/30 11:58:34;;;;;;;16.75;0.88;;;34.00;45.50;;;;;;4995591;28;20026;-75
2022/07/30 12:01:04;;;;;;;0.80;0.80;;;33.60;44.80;;;;;;5013287;28;20022;-75
2022/07/30 12:03:30;;;;;;;3.20;0.30;;;33.60;43.30;;;;;;5013226;28;20026;-76
2022/07/30 12:06:08;;;;;;;0.10;0.10;;;33.70;43.60;;;;;;4995333;28;20026;-75
2022/07/30 12:08:48;;;;;;;0.45;0.45;;;34.20;42.60;;;;;;4995907;28;20386;-75
2022/07/30 12:11:14;;;;;;;0.20;0.20;;;34.00;43.70;;;;;;5013207;28;20490;-75
2022/07/30 12:13:44;;;;;;;0.73;0.73;;;33.60;43.80;;;;;;4995442;28;20045;-75
2022/07/30 12:16:15;;;;;;;0.40;0.40;;;34.00;44.40;;;;;;4995488;28;20398;-75
2022/07/30 12:18:41;;;;;;;0.13;0.13;;;34.20;43.70;;;;;;5013207;28;20116;-75
2022/07/30 12:21:12;;;;;;;0.40;0.40;;;33.80;43.60;;;;;;5013033;28;20463;-75
2022/07/30 12:23:40;;;;;;;0.22;0.22;;;34.50;43.70;;;;;;5013098;28;20038;-76
2022/07/30 12:26:07;;;;;;;0.32;0.30;;;34.50;42.90;;;;;;5012892;28;20026;-75
2022/07/30 12:28:34;;;;;;;0.22;0.22;;;34.60;42.40;;;;;;4995334;28;20030;-75
2022/07/30 12:31:03;;;;;;;0.17;0.17;;;35.20;41.50;;;;;;5013002;28;20054;-76
2022/07/30 12:33:29;;;;;;;0.10;0.10;;;35.70;41.00;;;;;;5012854;28;20380;-75
2022/07/30 12:35:57;;;;;;;1.52;0.50;;;35.50;41.40;;;;;;5012995;28;20030;-75
2022/07/30 12:38:25;;;;;;;0.20;0.20;;;34.00;42.60;;;;;;5013133;28;20026;-74
2022/07/30 12:41:00;;;;;;;0.20;0.20;;;32.50;43.10;;;;;;4997276;28;20025;-75
2022/07/30 12:43:46;;;;;;;0.20;0.20;;;31.30;45.30;;;;;;5016738;28;20026;-74
2022/07/30 12:46:18;;;;;;;0.20;0.20;;;30.50;47.70;;;;;;4998813;28;20359;-74
2022/07/30 12:48:53;;;;;;;0.30;0.30;;;30.00;47.20;;;;;;5016788;28;20139;-85
2022/07/30 12:51:19;;;;;;;0.47;0.47;;;29.50;47.80;;;;;;5017435;28;20106;-85
2022/07/30 12:53:46;;;;;;;0.20;0.20;;;29.10;47.80;;;;;;5016791;28;20046;-84
2022/07/30 12:56:17;;;;;;;0.17;0.17;;;29.20;49.00;;;;;;4999500;28;20099;-84